Time;durP1;ratioP1;P1;durP2;ratioP2;P2;SDS_P1;SDS_P2;PMS_P1;PMS_P2;Temp;Humidity;BMP_temperature;BMP_pressure;BME280_temperature;BME280_humidity;BME280_pressure;Samples;Min_cycle;Max_cycle;Signal;HPM_P1;HPM_P2
2023/09/10 00:00:14;;;;;;;12.70;8.23;;;;;;;17.03;100.00;96158.34;1030990;28;20056;-73
2023/09/10 00:00:44;;;;;;;13.70;8.88;;;;;;;17.02;100.00;96162.88;1031067;28;20018;-73
2023/09/10 00:01:15;;;;;;;12.55;8.75;;;;;;;17.00;100.00;96162.41;1028555;28;20105;-74
2023/09/10 00:01:45;;;;;;;12.02;8.90;;;;;;;17.00;100.00;96158.94;1027644;28;20022;-73
2023/09/10 00:02:16;;;;;;;13.25;9.18;;;;;;;16.98;100.00;96159.25;1030999;28;20022;-74
2023/09/10 00:02:49;;;;;;;12.27;8.65;;;;;;;16.92;100.00;96147.94;1033871;28;20018;-73
2023/09/10 00:03:20;;;;;;;12.90;9.10;;;;;;;16.99;100.00;96166.09;1034117;28;20018;-73
2023/09/10 00:03:50;;;;;;;11.55;8.75;;;;;;;16.96;100.00;96156.09;1035822;28;20531;-74
2023/09/10 00:04:21;;;;;;;10.65;8.30;;;;;;;16.96;100.00;96158.75;1030944;28;20030;-73
2023/09/10 00:04:51;;;;;;;12.30;8.85;;;;;;;16.96;100.00;96159.53;1026627;28;20015;-73
2023/09/10 00:05:22;;;;;;;12.45;8.88;;;;;;;16.94;100.00;96160.91;1023074;28;20489;-73
2023/09/10 00:05:52;;;;;;;11.15;8.88;;;;;;;16.96;100.00;96161.38;1027266;28;20031;-75
2023/09/10 00:06:23;;;;;;;12.07;8.88;;;;;;;16.94;100.00;96160.91;1035058;28;20022;-73
2023/09/10 00:06:53;;;;;;;11.93;8.40;;;;;;;16.92;100.00;96157.75;1039111;28;20028;-72
2023/09/10 00:07:24;;;;;;;12.70;8.52;;;;;;;16.91;100.00;96151.66;1030968;28;20025;-73
2023/09/10 00:07:54;;;;;;;11.93;8.85;;;;;;;16.89;100.00;96158.34;1030878;28;20109;-74
2023/09/10 00:08:25;;;;;;;12.13;8.43;;;;;;;16.89;100.00;96158.34;1026930;28;20027;-73
2023/09/10 00:08:55;;;;;;;11.60;8.50;;;;;;;16.84;100.00;96153.13;1031140;28;20100;-73
2023/09/10 00:09:25;;;;;;;13.98;8.60;;;;;;;16.82;100.00;96147.34;1034902;28;20030;-73
2023/09/10 00:09:56;;;;;;;11.90;8.63;;;;;;;16.88;100.00;96156.78;1030264;28;20011;-74
2023/09/10 00:10:27;;;;;;;10.50;8.20;;;;;;;16.85;100.00;96158.13;1030894;28;20022;-74
2023/09/10 00:10:57;;;;;;;12.77;8.48;;;;;;;16.85;100.00;96157.34;1030746;28;20550;-75
2023/09/10 00:11:28;;;;;;;11.77;8.48;;;;;;;16.72;100.00;96143.75;1029350;28;20015;-73
2023/09/10 00:11:59;;;;;;;11.48;8.68;;;;;;;16.83;100.00;96156.84;1035252;28;20022;-73
2023/09/10 00:12:29;;;;;;;12.38;8.85;;;;;;;16.82;100.00;96152.63;1039097;28;20044;-73
2023/09/10 00:12:59;;;;;;;12.02;8.95;;;;;;;16.78;100.00;96152.44;1038763;28;20072;-73
2023/09/10 00:13:30;;;;;;;13.02;8.82;;;;;;;16.76;100.00;96153.78;1031106;28;20015;-73
2023/09/10 00:14:00;;;;;;;14.43;8.55;;;;;;;16.76;100.00;96145.84;1035029;28;20101;-73
2023/09/10 00:14:34;;;;;;;10.80;8.45;;;;;;;16.80;100.00;96160.06;1022894;29;20019;-74
2023/09/10 00:15:05;;;;;;;15.25;8.55;;;;;;;16.77;100.00;96155.34;1023359;28;20032;-73
2023/09/10 00:15:36;;;;;;;15.13;9.05;;;;;;;16.75;100.00;96152.22;1022783;29;20078;-74
2023/09/10 00:16:06;;;;;;;13.65;8.23;;;;;;;16.73;100.00;96150.63;1031432;28;20133;-74
2023/09/10 00:16:37;;;;;;;16.67;9.95;;;;;;;16.76;100.00;96153.78;1030795;28;20773;-73
2023/09/10 00:17:09;;;;;;;21.17;8.60;;;;;;;16.75;100.00;96160.19;1030901;28;20026;-74
2023/09/10 00:17:39;;;;;;;14.05;8.80;;;;;;;16.74;100.00;96151.41;1023073;28;20027;-74
2023/09/10 00:18:10;;;;;;;19.33;9.63;;;;;;;16.72;100.00;96153.56;1023017;28;20027;-73
2023/09/10 00:18:40;;;;;;;13.60;8.77;;;;;;;16.73;100.00;96155.94;1022924;29;20078;-74
2023/09/10 00:19:15;;;;;;;14.55;9.07;;;;;;;16.72;100.00;96164.94;1023219;28;20587;-72
2023/09/10 00:19:45;;;;;;;19.42;9.48;;;;;;;16.71;100.00;96152.78;1027336;28;20034;-76
2023/09/10 00:20:16;;;;;;;16.17;8.73;;;;;;;16.70;100.00;96161.81;1035512;28;20100;-73
2023/09/10 00:20:47;;;;;;;13.32;8.82;;;;;;;16.71;100.00;96152.00;1035541;28;20040;-74
2023/09/10 00:21:17;;;;;;;11.45;8.68;;;;;;;16.71;100.00;96158.09;1035494;28;20475;-73
2023/09/10 00:21:48;;;;;;;11.63;8.18;;;;;;;16.69;100.00;96154.94;1034705;28;20034;-74
2023/09/10 00:22:18;;;;;;;11.60;8.98;;;;;;;16.69;100.00;96154.94;1035036;28;20030;-73
2023/09/10 00:22:49;;;;;;;14.13;9.35;;;;;;;16.66;100.00;96152.84;1030994;28;20085;-73
2023/09/10 00:23:20;;;;;;;10.63;8.48;;;;;;;16.67;100.00;96157.09;1032857;28;20076;-74
2023/09/10 00:23:51;;;;;;;11.13;8.52;;;;;;;16.59;100.00;96144.50;1034826;28;20037;-74
2023/09/10 00:24:21;;;;;;;11.13;9.02;;;;;;;16.60;100.00;96145.28;1026951;28;20373;-73
2023/09/10 00:24:52;;;;;;;14.95;8.48;;;;;;;16.62;100.00;96146.56;1027056;28;20041;-73
2023/09/10 00:25:22;;;;;;;11.93;9.07;;;;;;;16.64;100.00;96154.25;1026917;28;20027;-74
2023/09/10 00:25:54;;;;;;;12.05;8.73;;;;;;;16.64;100.00;96157.66;1022819;28;20086;-74
2023/09/10 00:26:26;;;;;;;13.65;8.82;;;;;;;16.61;100.00;96155.59;1030803;28;20026;-73
2023/09/10 00:26:56;;;;;;;12.35;8.52;;;;;;;16.64;100.00;96155.03;1026493;28;20024;-74
2023/09/10 00:27:26;;;;;;;13.57;9.35;;;;;;;16.58;100.00;96155.41;1027836;28;20519;-74
2023/09/10 00:27:57;;;;;;;12.43;8.88;;;;;;;16.60;100.00;96151.38;1031305;28;20030;-73
2023/09/10 00:28:27;;;;;;;15.57;8.57;;;;;;;16.61;100.00;96152.94;1031048;28;20065;-73
2023/09/10 00:28:58;;;;;;;12.52;9.02;;;;;;;16.60;100.00;96150.56;1030936;28;20523;-73
2023/09/10 00:29:28;;;;;;;13.98;8.73;;;;;;;16.52;100.00;96144.09;1026688;28;20034;-73
2023/09/10 00:29:59;;;;;;;16.08;8.63;;;;;;;16.59;100.00;96165.69;1026125;28;20043;-72
2023/09/10 00:30:29;;;;;;;13.63;8.90;;;;;;;16.59;100.00;96154.31;1026872;28;20035;-73
2023/09/10 00:31:00;;;;;;;11.70;8.48;;;;;;;16.44;100.00;96131.53;1022805;28;20094;-73
2023/09/10 00:31:32;;;;;;;10.77;8.80;;;;;;;16.50;100.00;96152.34;1022927;29;20031;-74
2023/09/10 00:32:03;;;;;;;13.23;9.07;;;;;;;16.56;100.00;96160.97;1026587;28;20030;-74
2023/09/10 00:32:34;;;;;;;12.20;9.35;;;;;;;16.52;100.00;96152.03;1027138;28;20038;-73
2023/09/10 00:33:04;;;;;;;16.48;9.13;;;;;;;16.54;100.00;96152.53;1027185;28;20043;-73
2023/09/10 00:33:35;;;;;;;13.65;9.05;;;;;;;16.52;100.00;96159.97;1030938;28;20086;-74
2023/09/10 00:34:05;;;;;;;12.93;8.63;;;;;;;16.51;100.00;96161.06;1034872;28;20065;-73
2023/09/10 00:34:36;;;;;;;14.63;9.10;;;;;;;16.50;100.00;96160.28;1026816;28;20035;-74
2023/09/10 00:35:08;;;;;;;14.60;9.05;;;;;;;16.48;100.00;96153.69;1023607;28;20098;-73
2023/09/10 00:35:38;;;;;;;12.60;9.15;;;;;;;16.51;100.00;96161.06;1034827;28;20038;-73
2023/09/10 00:36:09;;;;;;;15.82;9.82;;;;;;;16.44;100.00;96155.34;1030697;28;20101;-75
2023/09/10 00:36:40;;;;;;;18.02;9.27;;;;;;;16.52;100.00;96156.56;1026864;28;20027;-74
2023/09/10 00:37:12;;;;;;;15.00;9.70;;;;;;;16.50;100.00;96156.84;1034416;28;20369;-73
2023/09/10 00:37:43;;;;;;;15.60;9.93;;;;;;;16.51;100.00;96163.72;1031119;28;20026;-74
2023/09/10 00:38:13;;;;;;;14.93;9.55;;;;;;;16.51;100.00;96163.72;1027595;28;20054;-74
2023/09/10 00:38:44;;;;;;;12.23;8.82;;;;;;;16.42;100.00;96152.97;1030669;28;20112;-73
2023/09/10 00:39:14;;;;;;;13.13;9.70;;;;;;;16.40;100.00;96155.16;1022909;28;20041;-73
2023/09/10 00:39:45;;;;;;;12.43;9.10;;;;;;;16.45;100.00;96162.22;1018390;29;20039;-75
2023/09/10 00:40:15;;;;;;;12.10;9.65;;;;;;;16.38;100.00;96154.63;1023816;28;20485;-74
2023/09/10 00:40:48;;;;;;;11.48;8.85;;;;;;;16.43;100.00;96156.41;1026756;28;20114;-73
2023/09/10 00:41:19;;;;;;;11.25;8.75;;;;;;;16.42;100.00;96162.78;1018756;28;20449;-74
2023/09/10 00:41:49;;;;;;;12.32;8.82;;;;;;;16.40;100.00;96157.03;1030681;28;20022;-73
2023/09/10 00:42:20;;;;;;;13.10;9.50;;;;;;;16.36;100.00;96162.06;1034790;28;20034;-73
2023/09/10 00:42:50;;;;;;;14.00;9.38;;;;;;;16.39;100.00;96168.66;1030680;28;20078;-73
2023/09/10 00:43:21;;;;;;;10.40;8.27;;;;;;;16.35;100.00;96162.38;1034838;28;20045;-73
2023/09/10 00:43:52;;;;;;;11.48;8.75;;;;;;;16.36;100.00;96161.28;1037736;28;20513;-73
2023/09/10 00:44:23;;;;;;;15.32;9.73;;;;;;;16.34;100.00;96166.91;1038696;28;20096;-74
2023/09/10 00:44:53;;;;;;;14.40;9.60;;;;;;;16.33;100.00;96161.88;1034725;28;20036;-74
2023/09/10 00:45:24;;;;;;;11.13;8.77;;;;;;;16.34;100.00;96164.25;1032677;28;20085;-73
2023/09/10 00:45:54;;;;;;;14.52;9.95;;;;;;;16.36;100.00;96166.59;1043041;28;20037;-73
2023/09/10 00:46:25;;;;;;;13.20;9.40;;;;;;;16.37;100.00;96165.53;1043003;28;20025;-74
2023/09/10 00:46:55;;;;;;;11.68;8.63;;;;;;;16.34;100.00;96164.25;1034554;28;20034;-74
2023/09/10 00:47:27;;;;;;;13.40;8.82;;;;;;;16.31;100.00;96156.88;1034829;28;20116;-73
2023/09/10 00:47:57;;;;;;;11.43;8.65;;;;;;;16.33;100.00;96159.22;1026687;28;20520;-73
2023/09/10 00:48:27;;;;;;;14.05;10.07;;;;;;;16.37;100.00;96152.28;1030772;28;20034;-72
2023/09/10 00:49:01;;;;;;;13.90;9.70;;;;;;;16.31;100.00;96148.94;1038079;28;20025;-74
2023/09/10 00:49:31;;;;;;;11.32;8.48;;;;;;;16.33;100.00;96159.22;1030702;28;20026;-74
2023/09/10 00:50:03;;;;;;;11.80;8.85;;;;;;;16.35;100.00;96165.03;1030172;28;20510;-73
2023/09/10 00:50:33;;;;;;;11.65;8.07;;;;;;;16.32;100.00;96155.00;1036557;28;20105;-74
2023/09/10 00:51:04;;;;;;;11.77;9.15;;;;;;;16.34;100.00;96158.16;1030575;28;20656;-73
2023/09/10 00:51:36;;;;;;;14.27;9.27;;;;;;;16.30;100.00;96157.16;1030694;28;20018;-74
2023/09/10 00:52:06;;;;;;;11.43;8.85;;;;;;;16.31;100.00;96164.81;1031595;28;20058;-74
2023/09/10 00:52:45;;;;;;;12.02;9.13;;;;;;;16.22;100.00;96151.44;1030760;28;20030;-73
2023/09/10 00:53:15;;;;;;;12.10;9.15;;;;;;;16.26;100.00;96159.59;1030795;28;20022;-74
2023/09/10 00:53:46;;;;;;;12.35;9.05;;;;;;;16.25;100.00;96156.16;1038125;28;20038;-74
2023/09/10 00:54:16;;;;;;;12.52;9.57;;;;;;;16.19;100.00;96157.31;1030721;28;20424;-73
2023/09/10 00:54:46;;;;;;;13.73;9.18;;;;;;;16.17;100.00;96151.53;1026480;28;20037;-73
2023/09/10 00:55:17;;;;;;;11.20;8.60;;;;;;;16.18;100.00;96155.75;1026511;28;20487;-73
2023/09/10 00:55:48;;;;;;;11.55;9.20;;;;;;;16.18;100.00;96158.38;1025842;28;20019;-73
2023/09/10 00:56:19;;;;;;;12.73;9.25;;;;;;;16.20;100.00;96164.19;1034580;28;20028;-74
2023/09/10 00:56:50;;;;;;;12.90;9.40;;;;;;;16.16;100.00;96157.91;1034637;28;20457;-72
2023/09/10 00:57:21;;;;;;;13.15;9.02;;;;;;;16.13;100.00;96153.19;1026532;28;20031;-74
2023/09/10 00:57:51;;;;;;;13.93;9.65;;;;;;;16.17;100.00;96158.69;1026566;28;20113;-73
2023/09/10 00:58:22;;;;;;;13.50;9.23;;;;;;;16.15;100.00;96160.81;1030822;28;20056;-74
2023/09/10 00:58:53;;;;;;;13.82;9.77;;;;;;;16.11;100.00;96155.31;1030461;28;20556;-74
2023/09/10 00:59:23;;;;;;;12.15;8.93;;;;;;;16.16;100.00;96160.56;1025489;28;20065;-74
2023/09/10 00:59:54;;;;;;;13.75;9.40;;;;;;;16.14;100.00;96160.03;1022156;29;20401;-74
2023/09/10 01:00:24;;;;;;;11.43;8.73;;;;;;;16.15;100.00;96161.59;1034768;28;20113;-73
2023/09/10 01:00:55;;;;;;;12.60;8.75;;;;;;;16.14;100.00;96165.34;1034532;28;20601;-73
2023/09/10 01:01:26;;;;;;;13.15;8.70;;;;;;;16.10;100.00;96159.03;1030009;28;20034;-74
2023/09/10 01:01:59;;;;;;;13.18;10.10;;;;;;;16.09;100.00;96157.44;1030701;28;20026;-73
2023/09/10 01:02:30;;;;;;;14.48;9.23;;;;;;;16.07;100.00;96154.31;1031092;28;20042;-74
2023/09/10 01:03:01;;;;;;;13.38;9.23;;;;;;;16.11;100.00;96165.91;1031876;28;20140;-73
2023/09/10 01:03:34;;;;;;;12.52;9.30;;;;;;;16.06;100.00;96157.25;1035118;28;20491;-74
2023/09/10 01:04:05;;;;;;;10.90;9.05;;;;;;;16.09;100.00;96168.03;1034146;28;20100;-74
2023/09/10 01:04:35;;;;;;;14.43;8.95;;;;;;;16.03;100.00;96159.41;1030486;28;20066;-73
2023/09/10 01:05:06;;;;;;;11.55;9.05;;;;;;;16.08;100.00;96166.47;1031112;28;20030;-74
2023/09/10 01:05:36;;;;;;;17.42;10.00;;;;;;;16.07;100.00;96164.91;1030461;28;20046;-72
2023/09/10 01:06:07;;;;;;;14.65;10.43;;;;;;;16.02;100.00;96162.31;1026614;28;20026;-73
2023/09/10 01:06:37;;;;;;;13.95;9.05;;;;;;;16.05;100.00;96161.75;1022660;29;20670;-73
2023/09/10 01:07:09;;;;;;;24.70;10.77;;;;;;;16.06;100.00;96163.31;1034810;28;20096;-73
2023/09/10 01:07:39;;;;;;;17.75;10.65;;;;;;;16.06;100.00;96168.63;1034839;28;20030;-74
2023/09/10 01:08:10;;;;;;;23.67;9.43;;;;;;;16.04;100.00;96165.47;1035692;28;20061;-73
2023/09/10 01:08:40;;;;;;;15.82;8.88;;;;;;;16.03;100.00;96166.56;1030730;28;20124;-72
2023/09/10 01:09:11;;;;;;;13.45;9.95;;;;;;;16.02;100.00;96165.75;1026679;28;20630;-73
2023/09/10 01:09:41;;;;;;;19.70;9.30;;;;;;;16.06;100.00;96168.63;1031453;28;20034;-73
2023/09/10 01:10:12;;;;;;;14.40;9.13;;;;;;;16.06;100.00;96162.53;1026391;28;20031;-74
2023/09/10 01:11:32;;;;;;;11.55;8.38;;;;;;;16.01;100.00;96169.47;1018659;29;20084;-73
2023/09/10 01:12:19;;;;;;;15.05;9.30;;;;;;;16.00;100.00;96164.50;1022336;29;20836;-73
2023/09/10 01:12:58;;;;;;;19.65;9.05;;;;;;;16.00;100.00;96167.13;1022281;29;20126;-74
2023/09/10 01:13:45;;;;;;;12.10;9.27;;;;;;;15.93;100.00;96164.06;1026323;28;20038;-73
2023/09/10 01:14:21;;;;;;;10.80;8.50;;;;;;;15.97;100.00;96170.34;1026334;28;20058;-74
2023/09/10 01:15:03;;;;;;;13.75;9.40;;;;;;;15.91;100.00;96166.19;1030565;28;20034;-73
2023/09/10 01:15:36;;;;;;;16.85;9.77;;;;;;;15.96;100.00;96163.47;1022747;29;20070;-74
2023/09/10 01:16:11;;;;;;;14.57;9.90;;;;;;;15.94;100.00;96168.28;1022473;29;20023;-73
2023/09/10 01:16:53;;;;;;;13.00;9.30;;;;;;;15.94;100.00;96168.28;1025919;28;20481;-73
2023/09/10 01:17:29;;;;;;;14.98;10.45;;;;;;;15.92;100.00;96168.53;1030586;28;20015;-74
2023/09/10 01:18:33;;;;;;;19.95;9.82;;;;;;;15.94;100.00;96170.91;1022259;28;20183;-73
2023/09/10 01:19:13;;;;;;;17.85;10.35;;;;;;;15.89;100.00;96163.03;1023499;28;20085;-73
2023/09/10 01:19:58;;;;;;;14.13;9.52;;;;;;;15.91;100.00;96177.56;1031436;28;20121;-74
2023/09/10 01:21:04;;;;;;;14.25;9.98;;;;;;;15.90;100.00;96177.88;1038828;28;20036;-73
2023/09/10 01:21:44;;;;;;;13.15;9.32;;;;;;;15.90;100.00;96175.22;1040225;28;20017;-73
2023/09/10 01:22:18;;;;;;;17.55;10.20;;;;;;;15.89;100.00;96173.63;1034610;28;20014;-73
2023/09/10 01:23:08;;;;;;;18.75;10.93;;;;;;;15.83;100.00;96170.28;1030704;28;20042;-73
2023/09/10 01:23:58;;;;;;;12.70;9.95;;;;;;;15.88;100.00;96177.34;1030669;28;20574;-73
2023/09/10 01:24:50;;;;;;;13.18;9.63;;;;;;;15.86;100.00;96184.78;1035827;28;20453;-73
2023/09/10 01:25:20;;;;;;;14.18;10.45;;;;;;;15.87;100.00;96175.78;1032034;28;20011;-74
2023/09/10 01:25:51;;;;;;;15.30;10.68;;;;;;;15.79;100.00;96163.94;1034719;28;20026;-73
2023/09/10 01:26:22;;;;;;;17.85;11.02;;;;;;;15.84;100.00;96179.78;1034529;28;20061;-74
2023/09/10 01:26:56;;;;;;;14.30;10.88;;;;;;;15.83;100.00;96174.75;1038584;28;20154;-73
2023/09/10 01:27:26;;;;;;;17.55;11.77;;;;;;;15.83;100.00;96169.47;1030645;28;20032;-74
2023/09/10 01:27:57;;;;;;;13.82;10.27;;;;;;;15.84;100.00;96176.34;1034842;28;20388;-75
2023/09/10 01:28:27;;;;;;;17.13;11.25;;;;;;;15.86;100.00;96171.53;1034322;28;20025;-73
2023/09/10 01:28:58;;;;;;;15.30;11.40;;;;;;;15.85;100.00;96180.56;1030871;28;20026;-73
2023/09/10 01:29:28;;;;;;;15.50;12.07;;;;;;;15.86;100.00;96177.66;1030373;28;20546;-74
2023/09/10 01:29:58;;;;;;;15.10;11.50;;;;;;;15.85;100.00;96178.69;1034114;28;20114;-73
2023/09/10 01:30:32;;;;;;;16.30;12.50;;;;;;;15.85;100.00;96177.91;1034683;28;20026;-73
2023/09/10 01:31:03;;;;;;;14.82;11.38;;;;;;;15.81;100.00;96171.63;1031024;28;20022;-73
2023/09/10 01:31:34;;;;;;;15.80;11.98;;;;;;;15.85;100.00;96172.63;1030149;28;20019;-73
2023/09/10 01:32:05;;;;;;;18.25;12.55;;;;;;;15.86;100.00;96179.47;1026469;28;20161;-74
2023/09/10 01:32:57;;;;;;;17.90;12.57;;;;;;;15.80;100.00;96168.19;1026506;28;20106;-74
2023/09/10 01:33:30;;;;;;;18.95;12.05;;;;;;;15.83;100.00;96170.28;1018114;29;20055;-74
2023/09/10 01:34:02;;;;;;;18.30;11.70;;;;;;;15.84;100.00;96174.47;1017795;29;20126;-73
2023/09/10 01:34:36;;;;;;;15.07;11.43;;;;;;;15.87;100.00;96178.44;1025053;28;20117;-74
2023/09/10 01:35:17;;;;;;;17.98;11.88;;;;;;;15.88;100.00;96182.63;1023485;28;20598;-73
2023/09/10 01:35:55;;;;;;;15.70;11.85;;;;;;;15.83;100.00;96180.03;1022614;29;20054;-74
2023/09/10 01:36:37;;;;;;;15.90;12.15;;;;;;;15.85;100.00;96177.91;1026543;28;20134;-73
2023/09/10 01:37:18;;;;;;;18.60;12.45;;;;;;;15.87;100.00;96183.72;1030393;28;20061;-73
2023/09/10 01:37:54;;;;;;;;;;;;;;;15.86;100.00;96188.22;1023120;29;20035;-73
2023/09/10 01:38:43;;;;;;;20.05;12.07;;;;;;;15.91;100.00;96176.78;1030537;28;19914;-74
2023/09/10 01:39:28;;;;;;;18.75;11.55;;;;;;;15.94;100.00;96179.63;1038813;28;20025;-72
2023/09/10 01:39:58;;;;;;;19.52;12.52;;;;;;;15.89;100.00;96171.75;1042221;28;20020;-74
2023/09/10 01:40:37;;;;;;;15.95;12.27;;;;;;;15.90;100.00;96185.81;1034628;28;20021;-73
2023/09/10 01:41:12;;;;;;;15.82;12.18;;;;;;;15.89;100.00;96184.22;1034615;28;20032;-73
2023/09/10 01:41:43;;;;;;;15.73;11.60;;;;;;;15.93;100.00;96182.59;1026565;28;20062;-74
2023/09/10 01:42:13;;;;;;;17.23;12.30;;;;;;;15.93;100.00;96175.44;1022006;29;20038;-73
2023/09/10 01:42:43;;;;;;;17.23;12.48;;;;;;;15.93;100.00;96174.66;1018511;29;20023;-73
2023/09/10 01:43:14;;;;;;;21.00;12.75;;;;;;;15.94;100.00;96181.50;1018634;29;20035;-73
2023/09/10 01:43:44;;;;;;;18.95;13.10;;;;;;;15.89;100.00;96170.97;1030583;28;20034;-74
2023/09/10 01:44:15;;;;;;;21.02;13.27;;;;;;;15.94;100.00;96176.22;1033862;28;20561;-73
2023/09/10 01:44:45;;;;;;;20.33;12.52;;;;;;;15.90;100.00;96177.88;1034605;28;20018;-74
2023/09/10 01:45:17;;;;;;;18.77;12.52;;;;;;;15.93;100.00;96180.72;1026359;28;20031;-74
2023/09/10 01:45:48;;;;;;;17.73;12.25;;;;;;;15.91;100.00;96171.47;1030759;28;20080;-73
2023/09/10 01:46:19;;;;;;;17.58;11.88;;;;;;;15.90;100.00;96173.34;1022583;29;20051;-73
2023/09/10 01:46:49;;;;;;;19.90;12.57;;;;;;;15.90;100.00;96181.28;1030471;28;20022;-74
2023/09/10 01:47:20;;;;;;;18.13;12.95;;;;;;;15.90;100.00;96188.44;1029945;28;20550;-74
2023/09/10 01:47:50;;;;;;;21.08;12.48;;;;;;;15.92;100.00;96181.00;1022518;28;20019;-75
2023/09/10 01:48:21;;;;;;;17.40;12.38;;;;;;;15.91;100.00;96185.50;1022618;29;20516;-73
2023/09/10 01:48:51;;;;;;;18.20;12.45;;;;;;;15.90;100.00;96175.22;1022404;29;20027;-72
2023/09/10 01:49:22;;;;;;;16.25;12.05;;;;;;;15.88;100.00;96182.63;1030420;28;20034;-74
2023/09/10 01:49:52;;;;;;;19.00;12.75;;;;;;;15.94;100.00;96192.09;1033933;28;20034;-73
2023/09/10 01:50:23;;;;;;;19.52;12.45;;;;;;;15.91;100.00;96172.28;1033735;28;20049;-73
2023/09/10 01:50:54;;;;;;;16.70;12.52;;;;;;;15.96;100.00;96179.34;1034330;28;20033;-73
2023/09/10 01:51:25;;;;;;;18.05;13.07;;;;;;;15.96;100.00;96182.81;1030331;28;20038;-73
2023/09/10 01:51:55;;;;;;;19.73;13.00;;;;;;;15.96;100.00;96182.00;1030538;28;20506;-73
2023/09/10 01:52:26;;;;;;;18.58;12.75;;;;;;;15.96;100.00;96179.34;1037708;28;20036;-74
2023/09/10 01:52:59;;;;;;;17.08;12.10;;;;;;;15.90;100.00;96176.00;1038698;28;20029;-74
2023/09/10 01:53:29;;;;;;;17.25;12.98;;;;;;;15.95;100.00;96183.84;1038137;28;20476;-75
2023/09/10 01:54:00;;;;;;;17.23;12.50;;;;;;;15.83;100.00;96162.34;1032921;28;20034;-73
2023/09/10 01:54:30;;;;;;;16.70;12.32;;;;;;;15.95;100.00;96180.44;1030948;28;20030;-74
2023/09/10 01:55:00;;;;;;;18.30;12.77;;;;;;;15.93;100.00;96179.94;1030528;28;20488;-74
2023/09/10 01:55:31;;;;;;;19.15;13.02;;;;;;;15.95;100.00;96185.72;1026409;28;20022;-73
2023/09/10 01:56:02;;;;;;;16.63;12.82;;;;;;;15.97;100.00;96186.22;1022569;28;20050;-72
2023/09/10 01:56:32;;;;;;;17.80;13.20;;;;;;;15.96;100.00;96196.03;1022657;29;20674;-74
2023/09/10 01:57:03;;;;;;;19.02;12.70;;;;;;;15.95;100.00;96185.72;1026658;28;20062;-73
2023/09/10 01:57:34;;;;;;;18.25;12.20;;;;;;;15.91;100.00;96182.84;1026847;28;21061;-73
2023/09/10 01:58:04;;;;;;;24.40;13.43;;;;;;;15.94;100.00;96189.44;1022723;28;20026;-73
2023/09/10 01:58:35;;;;;;;19.85;13.30;;;;;;;15.91;100.00;96187.38;1030580;28;20041;-76
2023/09/10 01:59:05;;;;;;;19.70;13.43;;;;;;;15.91;100.00;96190.00;1034497;28;20041;-73
2023/09/10 01:59:36;;;;;;;23.15;13.93;;;;;;;15.90;100.00;96180.50;1035165;28;20042;-74
2023/09/10 02:00:08;;;;;;;27.35;13.10;;;;;;;15.93;100.00;96199.25;1026371;28;20054;-74
2023/09/10 02:00:39;;;;;;;18.52;12.68;;;;;;;15.92;100.00;96192.38;1030603;28;20093;-75
2023/09/10 02:01:10;;;;;;;17.98;13.60;;;;;;;15.94;100.00;96197.38;1031906;28;20019;-74
2023/09/10 02:01:40;;;;;;;19.42;13.48;;;;;;;15.93;100.00;96193.97;1034823;28;20502;-74
2023/09/10 02:02:11;;;;;;;21.58;14.13;;;;;;;15.91;100.00;96193.44;1034267;28;20026;-74
2023/09/10 02:02:41;;;;;;;19.00;13.00;;;;;;;15.91;100.00;96190.00;1030749;28;20565;-74
2023/09/10 02:03:12;;;;;;;22.50;13.35;;;;;;;15.92;100.00;96194.22;1036951;28;20025;-75
2023/09/10 02:03:42;;;;;;;18.35;12.57;;;;;;;15.94;100.00;96197.38;1038611;28;20537;-73
2023/09/10 02:04:13;;;;;;;18.02;12.55;;;;;;;15.92;100.00;96195.00;1042787;28;20024;-74
2023/09/10 02:04:43;;;;;;;20.77;13.13;;;;;;;15.94;100.00;96192.09;1038576;28;20033;-74
2023/09/10 02:05:14;;;;;;;22.52;13.60;;;;;;;15.95;100.00;96193.66;1038749;28;20076;-73
2023/09/10 02:05:44;;;;;;;28.23;13.50;;;;;;;15.94;100.00;96198.16;1042637;28;20397;-73
2023/09/10 02:06:14;;;;;;;21.15;12.88;;;;;;;15.90;100.00;96194.53;1038580;28;20827;-74
2023/09/10 02:06:45;;;;;;;18.10;12.52;;;;;;;15.91;100.00;96190.78;1030550;28;20037;-74
2023/09/10 02:07:15;;;;;;;20.85;13.02;;;;;;;15.96;100.00;96195.22;1022565;29;20031;-74
2023/09/10 02:07:46;;;;;;;19.95;13.18;;;;;;;15.94;100.00;96200.03;1030316;28;20478;-75
2023/09/10 02:08:16;;;;;;;16.67;12.65;;;;;;;15.95;100.00;96198.94;1030525;28;20034;-74
2023/09/10 02:08:47;;;;;;;18.80;12.85;;;;;;;15.94;100.00;96200.03;1034670;28;20036;-74
2023/09/10 02:09:17;;;;;;;18.70;12.95;;;;;;;15.92;100.00;96191.56;1034620;28;20034;-73
2023/09/10 02:09:48;;;;;;;18.52;13.02;;;;;;;15.92;100.00;96199.53;1040444;28;20102;-74
2023/09/10 02:10:18;;;;;;;17.60;13.02;;;;;;;15.88;100.00;96195.88;1042527;28;20042;-74
2023/09/10 02:10:49;;;;;;;18.25;13.05;;;;;;;15.91;100.00;96198.72;1038681;28;20549;-73
2023/09/10 02:11:19;;;;;;;21.67;13.13;;;;;;;15.91;100.00;96197.94;1038380;28;20056;-74
2023/09/10 02:11:50;;;;;;;22.80;13.93;;;;;;;15.89;100.00;96200.88;1034340;28;20034;-75
2023/09/10 02:12:20;;;;;;;18.15;13.48;;;;;;;15.86;100.00;96190.06;1034525;28;20032;-74
2023/09/10 02:12:50;;;;;;;19.33;13.10;;;;;;;15.89;100.00;96198.22;1030452;28;20053;-76
2023/09/10 02:13:21;;;;;;;19.65;13.95;;;;;;;15.91;100.00;96193.44;1034147;28;20026;-74
2023/09/10 02:13:53;;;;;;;22.60;14.73;;;;;;;15.89;100.00;96198.22;1030251;28;20126;-73
2023/09/10 02:14:24;;;;;;;21.42;14.38;;;;;;;15.85;100.00;96188.50;1030388;28;20034;-73
2023/09/10 02:14:57;;;;;;;20.92;13.25;;;;;;;15.90;100.00;96199.03;1030955;28;20124;-74
2023/09/10 02:15:28;;;;;;;22.90;13.25;;;;;;;15.81;100.00;96188.28;1038582;28;20034;-74
2023/09/10 02:15:59;;;;;;;18.33;13.02;;;;;;;15.89;100.00;96197.44;1034507;28;20030;-74
2023/09/10 02:16:29;;;;;;;17.83;12.95;;;;;;;15.83;100.00;96185.34;1030252;28;20061;-74
2023/09/10 02:17:00;;;;;;;22.25;13.48;;;;;;;15.82;100.00;96189.84;1022669;28;20439;-74
2023/09/10 02:17:30;;;;;;;19.75;13.20;;;;;;;15.83;100.00;96190.63;1030521;28;20037;-74
2023/09/10 02:18:01;;;;;;;19.88;14.43;;;;;;;15.86;100.00;96192.72;1030765;28;20030;-74
2023/09/10 02:18:31;;;;;;;20.83;14.70;;;;;;;15.88;100.00;96193.22;1034454;28;20113;-74
2023/09/10 02:19:02;;;;;;;17.95;13.25;;;;;;;15.88;100.00;96195.88;1026706;28;20109;-73
2023/09/10 02:19:33;;;;;;;16.95;13.00;;;;;;;15.88;100.00;96193.22;1021945;28;20035;-73
2023/09/10 02:20:09;;;;;;;18.85;13.45;;;;;;;15.82;100.00;96192.50;1025431;28;20023;-74
2023/09/10 02:20:40;;;;;;;19.00;13.02;;;;;;;15.86;100.00;96195.34;1032360;28;20038;-74
2023/09/10 02:21:13;;;;;;;16.85;12.50;;;;;;;15.85;100.00;96193.78;1035279;28;20025;-74
2023/09/10 02:21:43;;;;;;;21.63;13.50;;;;;;;15.87;100.00;96196.94;1030438;28;20034;-75
2023/09/10 02:22:14;;;;;;;19.55;12.50;;;;;;;15.88;100.00;96193.22;1030322;28;20419;-75
2023/09/10 02:22:44;;;;;;;18.40;13.00;;;;;;;15.84;100.00;96193.00;1030408;28;20022;-73
2023/09/10 02:23:15;;;;;;;20.00;14.23;;;;;;;15.86;100.00;96201.47;1029834;28;20182;-74
2023/09/10 02:23:45;;;;;;;15.88;11.15;;;;;;;15.86;100.00;96190.06;1034170;28;20416;-74
2023/09/10 02:24:16;;;;;;;18.73;12.82;;;;;;;15.83;100.00;96193.28;1035011;28;20478;-74
2023/09/10 02:24:50;;;;;;;19.88;12.48;;;;;;;15.84;100.00;96197.53;1026854;28;20035;-74
2023/09/10 02:25:21;;;;;;;17.27;12.38;;;;;;;15.82;100.00;96200.44;1030681;28;20019;-75
2023/09/10 02:25:52;;;;;;;19.30;13.32;;;;;;;15.82;100.00;96207.59;1034758;28;20495;-74
2023/09/10 02:26:22;;;;;;;15.30;12.27;;;;;;;15.79;100.00;96195.72;1034659;28;20395;-74
2023/09/10 02:26:52;;;;;;;18.30;12.85;;;;;;;15.79;100.00;96196.53;1034691;28;20207;-73
2023/09/10 02:27:23;;;;;;;22.38;12.50;;;;;;;15.79;100.00;96195.72;1026774;28;20034;-73
2023/09/10 02:27:54;;;;;;;18.77;12.52;;;;;;;15.75;100.00;96194.72;1034975;28;20037;-74